sensor_id;sensor_type;location;lat;lon;timestamp;P1;durP1;ratioP1;P2;durP2;ratioP2
30533;SDS011;17318;52.390;9.754;2023-06-04T00:00:03;2.35;;;1.33;;
30533;SDS011;17318;52.390;9.754;2023-06-04T00:02:30;3.05;;;1.30;;
30533;SDS011;17318;52.390;9.754;2023-06-04T00:04:56;3.30;;;1.10;;
30533;SDS011;17318;52.390;9.754;2023-06-04T00:07:21;5.00;;;1.30;;
30533;SDS011;17318;52.390;9.754;2023-06-04T00:09:47;4.40;;;1.25;;
30533;SDS011;17318;52.390;9.754;2023-06-04T00:12:13;4.10;;;1.45;;
30533;SDS011;17318;52.390;9.754;2023-06-04T00:14:39;3.63;;;1.30;;
30533;SDS011;17318;52.390;9.754;2023-06-04T00:17:07;4.03;;;1.38;;
30533;SDS011;17318;52.390;9.754;2023-06-04T00:19:33;1.95;;;1.15;;
30533;SDS011;17318;52.390;9.754;2023-06-04T00:21:59;2.67;;;1.17;;
30533;SDS011;17318;52.390;9.754;2023-06-04T00:24:25;3.80;;;1.08;;
30533;SDS011;17318;52.390;9.754;2023-06-04T00:26:50;3.40;;;1.35;;
30533;SDS011;17318;52.390;9.754;2023-06-04T00:29:16;6.10;;;1.20;;
30533;SDS011;17318;52.390;9.754;2023-06-04T00:31:42;1.85;;;1.00;;
30533;SDS011;17318;52.390;9.754;2023-06-04T00:34:07;3.25;;;1.80;;
30533;SDS011;17318;52.390;9.754;2023-06-04T00:36:33;2.67;;;1.05;;
30533;SDS011;17318;52.390;9.754;2023-06-04T00:38:59;3.28;;;1.35;;
30533;SDS011;17318;52.390;9.754;2023-06-04T00:41:25;2.67;;;1.20;;
30533;SDS011;17318;52.390;9.754;2023-06-04T00:43:51;4.90;;;1.23;;
30533;SDS011;17318;52.390;9.754;2023-06-04T00:46:26;4.05;;;1.20;;
30533;SDS011;17318;52.390;9.754;2023-06-04T00:48:53;4.40;;;1.02;;
30533;SDS011;17318;52.390;9.754;2023-06-04T00:51:20;1.83;;;1.00;;
30533;SDS011;17318;52.390;9.754;2023-06-04T00:53:48;5.32;;;1.10;;
30533;SDS011;17318;52.390;9.754;2023-06-04T00:56:14;2.00;;;0.98;;
30533;SDS011;17318;52.390;9.754;2023-06-04T00:58:40;3.28;;;1.13;;
30533;SDS011;17318;52.390;9.754;2023-06-04T01:01:15;2.67;;;1.10;;
30533;SDS011;17318;52.390;9.754;2023-06-04T01:03:45;3.70;;;1.13;;
30533;SDS011;17318;52.390;9.754;2023-06-04T01:08:58;2.13;;;0.88;;
30533;SDS011;17318;52.390;9.754;2023-06-04T01:11:32;1.92;;;1.05;;
30533;SDS011;17318;52.390;9.754;2023-06-04T01:14:00;7.07;;;1.23;;
30533;SDS011;17318;52.390;9.754;2023-06-04T01:16:27;4.97;;;1.55;;
30533;SDS011;17318;52.390;9.754;2023-06-04T01:18:58;5.05;;;1.70;;
30533;SDS011;17318;52.390;9.754;2023-06-04T01:21:27;6.03;;;2.20;;
30533;SDS011;17318;52.390;9.754;2023-06-04T01:24:00;5.57;;;3.10;;
30533;SDS011;17318;52.390;9.754;2023-06-04T01:26:30;12.23;;;3.58;;
30533;SDS011;17318;52.390;9.754;2023-06-04T01:28:59;8.15;;;3.95;;
30533;SDS011;17318;52.390;9.754;2023-06-04T01:31:26;10.45;;;5.10;;
30533;SDS011;17318;52.390;9.754;2023-06-04T01:33:53;18.92;;;6.53;;
30533;SDS011;17318;52.390;9.754;2023-06-04T01:36:22;19.25;;;7.75;;
30533;SDS011;17318;52.390;9.754;2023-06-04T01:38:49;21.33;;;8.32;;
30533;SDS011;17318;52.390;9.754;2023-06-04T01:41:15;20.52;;;8.55;;
30533;SDS011;17318;52.390;9.754;2023-06-04T01:43:41;17.95;;;8.85;;
30533;SDS011;17318;52.390;9.754;2023-06-04T01:46:07;24.63;;;9.63;;
30533;SDS011;17318;52.390;9.754;2023-06-04T01:48:32;19.83;;;9.65;;
30533;SDS011;17318;52.390;9.754;2023-06-04T01:50:58;18.73;;;9.55;;
30533;SDS011;17318;52.390;9.754;2023-06-04T01:53:25;16.70;;;9.10;;
30533;SDS011;17318;52.390;9.754;2023-06-04T01:55:51;22.00;;;10.70;;
30533;SDS011;17318;52.390;9.754;2023-06-04T01:58:17;21.98;;;10.43;;
30533;SDS011;17318;52.390;9.754;2023-06-04T02:00:48;24.67;;;11.02;;
30533;SDS011;17318;52.390;9.754;2023-06-04T02:03:14;27.38;;;9.65;;
30533;SDS011;17318;52.390;9.754;2023-06-04T02:05:40;19.73;;;8.75;;
30533;SDS011;17318;52.390;9.754;2023-06-04T02:08:09;19.25;;;9.05;;
30533;SDS011;17318;52.390;9.754;2023-06-04T02:10:36;21.05;;;9.77;;
30533;SDS011;17318;52.390;9.754;2023-06-04T02:13:02;22.33;;;9.13;;
30533;SDS011;17318;52.390;9.754;2023-06-04T02:15:29;19.92;;;7.93;;
30533;SDS011;17318;52.390;9.754;2023-06-04T02:17:56;13.30;;;6.35;;
30533;SDS011;17318;52.390;9.754;2023-06-04T02:20:24;15.90;;;6.47;;
30533;SDS011;17318;52.390;9.754;2023-06-04T02:22:54;14.43;;;6.45;;
30533;SDS011;17318;52.390;9.754;2023-06-04T02:25:20;12.45;;;6.45;;
30533;SDS011;17318;52.390;9.754;2023-06-04T02:27:46;13.90;;;5.88;;
30533;SDS011;17318;52.390;9.754;2023-06-04T02:30:12;14.27;;;5.85;;
30533;SDS011;17318;52.390;9.754;2023-06-04T02:32:38;16.13;;;5.80;;
30533;SDS011;17318;52.390;9.754;2023-06-04T02:35:04;10.90;;;4.88;;
30533;SDS011;17318;52.390;9.754;2023-06-04T02:37:30;13.35;;;5.75;;
30533;SDS011;17318;52.390;9.754;2023-06-04T02:39:55;13.25;;;5.70;;
30533;SDS011;17318;52.390;9.754;2023-06-04T02:42:21;13.60;;;5.15;;
30533;SDS011;17318;52.390;9.754;2023-06-04T02:44:47;8.43;;;4.60;;
30533;SDS011;17318;52.390;9.754;2023-06-04T02:47:12;14.45;;;5.70;;
30533;SDS011;17318;52.390;9.754;2023-06-04T02:49:38;11.77;;;5.20;;
30533;SDS011;17318;52.390;9.754;2023-06-04T02:52:04;9.30;;;4.15;;
30533;SDS011;17318;52.390;9.754;2023-06-04T02:54:29;16.05;;;4.82;;
30533;SDS011;17318;52.390;9.754;2023-06-04T02:56:55;16.65;;;5.13;;
30533;SDS011;17318;52.390;9.754;2023-06-04T02:59:21;12.85;;;4.38;;
30533;SDS011;17318;52.390;9.754;2023-06-04T03:01:47;11.88;;;4.43;;
30533;SDS011;17318;52.390;9.754;2023-06-04T03:04:13;9.30;;;3.85;;
30533;SDS011;17318;52.390;9.754;2023-06-04T03:06:40;7.97;;;4.10;;
30533;SDS011;17318;52.390;9.754;2023-06-04T03:09:10;6.38;;;3.47;;
30533;SDS011;17318;52.390;9.754;2023-06-04T03:11:36;14.93;;;4.28;;
30533;SDS011;17318;52.390;9.754;2023-06-04T03:14:02;9.50;;;3.97;;
30533;SDS011;17318;52.390;9.754;2023-06-04T03:16:27;6.75;;;3.60;;
30533;SDS011;17318;52.390;9.754;2023-06-04T03:18:53;11.10;;;3.90;;
30533;SDS011;17318;52.390;9.754;2023-06-04T03:21:19;6.82;;;3.20;;
30533;SDS011;17318;52.390;9.754;2023-06-04T03:23:44;6.75;;;3.30;;
30533;SDS011;17318;52.390;9.754;2023-06-04T03:26:10;10.10;;;3.03;;
30533;SDS011;17318;52.390;9.754;2023-06-04T03:28:37;8.40;;;3.67;;
30533;SDS011;17318;52.390;9.754;2023-06-04T03:31:03;8.82;;;2.88;;
30533;SDS011;17318;52.390;9.754;2023-06-04T03:33:29;11.65;;;3.30;;
30533;SDS011;17318;52.390;9.754;2023-06-04T03:35:55;6.78;;;3.05;;
30533;SDS011;17318;52.390;9.754;2023-06-04T03:38:24;6.88;;;2.90;;
30533;SDS011;17318;52.390;9.754;2023-06-04T03:40:50;5.72;;;2.72;;
30533;SDS011;17318;52.390;9.754;2023-06-04T03:43:18;5.47;;;2.77;;
30533;SDS011;17318;52.390;9.754;2023-06-04T03:45:44;5.28;;;2.47;;
30533;SDS011;17318;52.390;9.754;2023-06-04T03:48:09;4.97;;;2.83;;
30533;SDS011;17318;52.390;9.754;2023-06-04T03:50:36;7.53;;;3.05;;
30533;SDS011;17318;52.390;9.754;2023-06-04T03:53:02;6.40;;;3.53;;
30533;SDS011;17318;52.390;9.754;2023-06-04T03:55:30;7.18;;;2.88;;
30533;SDS011;17318;52.390;9.754;2023-06-04T03:57:57;6.70;;;2.63;;
30533;SDS011;17318;52.390;9.754;2023-06-04T04:00:23;9.65;;;2.03;;
30533;SDS011;17318;52.390;9.754;2023-06-04T04:02:48;7.55;;;1.67;;
30533;SDS011;17318;52.390;9.754;2023-06-04T04:05:15;6.85;;;2.30;;
30533;SDS011;17318;52.390;9.754;2023-06-04T04:07:40;5.78;;;2.20;;
30533;SDS011;17318;52.390;9.754;2023-06-04T04:10:06;5.13;;;2.30;;
30533;SDS011;17318;52.390;9.754;2023-06-04T04:12:32;4.47;;;2.00;;
30533;SDS011;17318;52.390;9.754;2023-06-04T04:14:58;3.22;;;1.73;;
30533;SDS011;17318;52.390;9.754;2023-06-04T04:17:24;8.18;;;2.00;;
30533;SDS011;17318;52.390;9.754;2023-06-04T04:19:50;3.05;;;1.45;;
30533;SDS011;17318;52.390;9.754;2023-06-04T04:22:16;2.50;;;1.42;;
30533;SDS011;17318;52.390;9.754;2023-06-04T04:24:42;4.22;;;2.40;;
30533;SDS011;17318;52.390;9.754;2023-06-04T04:27:08;4.30;;;1.50;;
30533;SDS011;17318;52.390;9.754;2023-06-04T04:29:38;2.25;;;1.27;;
30533;SDS011;17318;52.390;9.754;2023-06-04T04:32:04;6.55;;;1.65;;
30533;SDS011;17318;52.390;9.754;2023-06-04T04:34:36;3.10;;;1.20;;
30533;SDS011;17318;52.390;9.754;2023-06-04T04:39:33;4.90;;;1.40;;
30533;SDS011;17318;52.390;9.754;2023-06-04T04:42:00;5.68;;;1.63;;
30533;SDS011;17318;52.390;9.754;2023-06-04T04:44:27;4.03;;;1.23;;
30533;SDS011;17318;52.390;9.754;2023-06-04T04:46:52;2.40;;;1.25;;
30533;SDS011;17318;52.390;9.754;2023-06-04T04:49:18;2.20;;;1.25;;
30533;SDS011;17318;52.390;9.754;2023-06-04T04:51:43;5.15;;;1.35;;
30533;SDS011;17318;52.390;9.754;2023-06-04T04:54:09;3.28;;;1.45;;
30533;SDS011;17318;52.390;9.754;2023-06-04T04:56:35;3.53;;;1.35;;
30533;SDS011;17318;52.390;9.754;2023-06-04T04:59:01;2.83;;;1.38;;
30533;SDS011;17318;52.390;9.754;2023-06-04T05:01:26;6.25;;;3.40;;
30533;SDS011;17318;52.390;9.754;2023-06-04T05:03:52;2.35;;;1.17;;
30533;SDS011;17318;52.390;9.754;2023-06-04T05:06:18;1.55;;;0.80;;
30533;SDS011;17318;52.390;9.754;2023-06-04T05:08:44;3.80;;;1.20;;
30533;SDS011;17318;52.390;9.754;2023-06-04T05:11:10;3.08;;;2.10;;
30533;SDS011;17318;52.390;9.754;2023-06-04T05:13:36;1.98;;;1.10;;
30533;SDS011;17318;52.390;9.754;2023-06-04T05:16:01;2.20;;;1.17;;
30533;SDS011;17318;52.390;9.754;2023-06-04T05:18:39;5.97;;;1.25;;
30533;SDS011;17318;52.390;9.754;2023-06-04T05:21:09;4.65;;;1.00;;
30533;SDS011;17318;52.390;9.754;2023-06-04T05:23:37;1.48;;;1.13;;
30533;SDS011;17318;52.390;9.754;2023-06-04T05:26:04;2.33;;;1.27;;
30533;SDS011;17318;52.390;9.754;2023-06-04T05:28:30;2.95;;;1.00;;
30533;SDS011;17318;52.390;9.754;2023-06-04T05:30:58;1.58;;;1.10;;
30533;SDS011;17318;52.390;9.754;2023-06-04T05:33:27;1.30;;;1.00;;
30533;SDS011;17318;52.390;9.754;2023-06-04T05:35:55;2.22;;;1.10;;
30533;SDS011;17318;52.390;9.754;2023-06-04T05:38:23;1.95;;;1.42;;
30533;SDS011;17318;52.390;9.754;2023-06-04T05:40:55;1.15;;;0.90;;
30533;SDS011;17318;52.390;9.754;2023-06-04T05:43:21;5.72;;;1.13;;
30533;SDS011;17318;52.390;9.754;2023-06-04T05:45:47;2.13;;;1.25;;
30533;SDS011;17318;52.390;9.754;2023-06-04T05:48:13;4.72;;;1.23;;
30533;SDS011;17318;52.390;9.754;2023-06-04T05:50:38;1.80;;;1.20;;
30533;SDS011;17318;52.390;9.754;2023-06-04T05:53:04;1.98;;;1.10;;
30533;SDS011;17318;52.390;9.754;2023-06-04T05:55:33;3.45;;;1.33;;
30533;SDS011;17318;52.390;9.754;2023-06-04T05:57:58;0.90;;;0.85;;
30533;SDS011;17318;52.390;9.754;2023-06-04T06:00:24;5.20;;;1.15;;
30533;SDS011;17318;52.390;9.754;2023-06-04T06:02:50;2.33;;;0.98;;
30533;SDS011;17318;52.390;9.754;2023-06-04T06:05:18;3.70;;;1.00;;
30533;SDS011;17318;52.390;9.754;2023-06-04T06:07:44;3.75;;;1.00;;
30533;SDS011;17318;52.390;9.754;2023-06-04T06:10:10;2.58;;;1.13;;
30533;SDS011;17318;52.390;9.754;2023-06-04T06:12:36;3.08;;;1.23;;
30533;SDS011;17318;52.390;9.754;2023-06-04T06:15:02;3.05;;;1.20;;
30533;SDS011;17318;52.390;9.754;2023-06-04T06:17:28;1.50;;;1.00;;
30533;SDS011;17318;52.390;9.754;2023-06-04T06:19:54;4.10;;;1.30;;
30533;SDS011;17318;52.390;9.754;2023-06-04T06:22:20;1.15;;;0.90;;
30533;SDS011;17318;52.390;9.754;2023-06-04T06:24:47;1.88;;;1.20;;
30533;SDS011;17318;52.390;9.754;2023-06-04T06:27:16;3.20;;;1.00;;
30533;SDS011;17318;52.390;9.754;2023-06-04T06:29:42;0.85;;;0.70;;
30533;SDS011;17318;52.390;9.754;2023-06-04T06:32:08;2.60;;;1.10;;
30533;SDS011;17318;52.390;9.754;2023-06-04T06:34:37;1.23;;;1.00;;
30533;SDS011;17318;52.390;9.754;2023-06-04T06:37:03;1.95;;;1.00;;
30533;SDS011;17318;52.390;9.754;2023-06-04T06:39:29;1.38;;;0.90;;
30533;SDS011;17318;52.390;9.754;2023-06-04T06:41:57;3.45;;;1.00;;
30533;SDS011;17318;52.390;9.754;2023-06-04T06:44:23;2.70;;;0.90;;
30533;SDS011;17318;52.390;9.754;2023-06-04T06:46:48;2.08;;;1.10;;
30533;SDS011;17318;52.390;9.754;2023-06-04T06:49:14;4.68;;;1.08;;
30533;SDS011;17318;52.390;9.754;2023-06-04T06:51:40;2.95;;;0.93;;
30533;SDS011;17318;52.390;9.754;2023-06-04T06:54:08;2.25;;;1.00;;
30533;SDS011;17318;52.390;9.754;2023-06-04T06:56:34;4.80;;;1.20;;
30533;SDS011;17318;52.390;9.754;2023-06-04T06:59:00;1.88;;;1.33;;
30533;SDS011;17318;52.390;9.754;2023-06-04T07:01:25;1.95;;;0.90;;
30533;SDS011;17318;52.390;9.754;2023-06-04T07:03:51;1.65;;;1.00;;
30533;SDS011;17318;52.390;9.754;2023-06-04T07:06:17;3.28;;;1.30;;
30533;SDS011;17318;52.390;9.754;2023-06-04T07:08:43;1.67;;;1.20;;
30533;SDS011;17318;52.390;9.754;2023-06-04T07:11:08;1.65;;;1.00;;
30533;SDS011;17318;52.390;9.754;2023-06-04T07:13:37;3.35;;;1.80;;
30533;SDS011;17318;52.390;9.754;2023-06-04T07:16:03;2.35;;;1.13;;
30533;SDS011;17318;52.390;9.754;2023-06-04T07:18:29;8.63;;;1.70;;
30533;SDS011;17318;52.390;9.754;2023-06-04T07:20:55;2.00;;;1.23;;
30533;SDS011;17318;52.390;9.754;2023-06-04T07:23:21;2.38;;;1.38;;
30533;SDS011;17318;52.390;9.754;2023-06-04T07:25:46;5.75;;;1.23;;
30533;SDS011;17318;52.390;9.754;2023-06-04T07:28:12;3.13;;;1.10;;
30533;SDS011;17318;52.390;9.754;2023-06-04T07:30:38;2.83;;;1.42;;
30533;SDS011;17318;52.390;9.754;2023-06-04T07:33:04;1.98;;;1.05;;
30533;SDS011;17318;52.390;9.754;2023-06-04T07:35:31;1.30;;;1.15;;
30533;SDS011;17318;52.390;9.754;2023-06-04T07:37:57;2.10;;;1.17;;
30533;SDS011;17318;52.390;9.754;2023-06-04T07:40:22;2.28;;;1.05;;
30533;SDS011;17318;52.390;9.754;2023-06-04T07:42:48;4.18;;;1.05;;
30533;SDS011;17318;52.390;9.754;2023-06-04T07:45:14;5.03;;;1.10;;
30533;SDS011;17318;52.390;9.754;2023-06-04T07:47:40;2.58;;;1.30;;
30533;SDS011;17318;52.390;9.754;2023-06-04T07:50:06;6.10;;;1.13;;
30533;SDS011;17318;52.390;9.754;2023-06-04T07:52:32;1.48;;;0.80;;
30533;SDS011;17318;52.390;9.754;2023-06-04T07:54:58;4.03;;;1.17;;
30533;SDS011;17318;52.390;9.754;2023-06-04T07:57:25;1.88;;;1.05;;
30533;SDS011;17318;52.390;9.754;2023-06-04T07:59:50;2.42;;;1.20;;
30533;SDS011;17318;52.390;9.754;2023-06-04T08:02:16;4.75;;;1.00;;
30533;SDS011;17318;52.390;9.754;2023-06-04T08:04:42;1.27;;;0.90;;
30533;SDS011;17318;52.390;9.754;2023-06-04T08:07:09;3.97;;;1.38;;
30533;SDS011;17318;52.390;9.754;2023-06-04T08:09:34;2.88;;;1.10;;
30533;SDS011;17318;52.390;9.754;2023-06-04T08:12:00;3.10;;;1.10;;
30533;SDS011;17318;52.390;9.754;2023-06-04T08:14:26;4.97;;;1.63;;
30533;SDS011;17318;52.390;9.754;2023-06-04T08:16:55;4.38;;;1.23;;
30533;SDS011;17318;52.390;9.754;2023-06-04T08:19:20;1.58;;;1.25;;
30533;SDS011;17318;52.390;9.754;2023-06-04T08:21:46;2.97;;;1.30;;
30533;SDS011;17318;52.390;9.754;2023-06-04T08:24:12;3.78;;;1.08;;
30533;SDS011;17318;52.390;9.754;2023-06-04T08:26:38;1.88;;;1.00;;
30533;SDS011;17318;52.390;9.754;2023-06-04T08:29:04;2.17;;;1.00;;
30533;SDS011;17318;52.390;9.754;2023-06-04T08:31:31;3.10;;;0.93;;
30533;SDS011;17318;52.390;9.754;2023-06-04T08:33:57;1.92;;;1.00;;
30533;SDS011;17318;52.390;9.754;2023-06-04T08:36:22;6.07;;;1.90;;
30533;SDS011;17318;52.390;9.754;2023-06-04T08:38:48;3.33;;;1.60;;
30533;SDS011;17318;52.390;9.754;2023-06-04T08:43:56;1.10;;;0.80;;
30533;SDS011;17318;52.390;9.754;2023-06-04T08:46:26;1.65;;;0.88;;
30533;SDS011;17318;52.390;9.754;2023-06-04T08:48:54;0.95;;;0.60;;
30533;SDS011;17318;52.390;9.754;2023-06-04T08:51:25;3.45;;;1.02;;
30533;SDS011;17318;52.390;9.754;2023-06-04T08:53:50;7.95;;;0.98;;
30533;SDS011;17318;52.390;9.754;2023-06-04T08:56:19;1.95;;;1.08;;
30533;SDS011;17318;52.390;9.754;2023-06-04T08:58:47;1.63;;;1.05;;
30533;SDS011;17318;52.390;9.754;2023-06-04T09:01:13;2.03;;;1.20;;
30533;SDS011;17318;52.390;9.754;2023-06-04T09:03:39;1.35;;;0.65;;
30533;SDS011;17318;52.390;9.754;2023-06-04T09:06:06;1.60;;;0.90;;
30533;SDS011;17318;52.390;9.754;2023-06-04T09:08:34;2.47;;;1.10;;
30533;SDS011;17318;52.390;9.754;2023-06-04T09:11:05;1.27;;;0.73;;
30533;SDS011;17318;52.390;9.754;2023-06-04T09:13:33;0.60;;;0.50;;
30533;SDS011;17318;52.390;9.754;2023-06-04T09:18:27;2.40;;;0.60;;
30533;SDS011;17318;52.390;9.754;2023-06-04T09:21:06;7.88;;;1.55;;
30533;SDS011;17318;52.390;9.754;2023-06-04T09:23:45;1.52;;;0.80;;
30533;SDS011;17318;52.390;9.754;2023-06-04T09:26:12;1.13;;;0.80;;
30533;SDS011;17318;52.390;9.754;2023-06-04T09:28:41;2.58;;;0.90;;
30533;SDS011;17318;52.390;9.754;2023-06-04T09:31:17;1.77;;;0.90;;
30533;SDS011;17318;52.390;9.754;2023-06-04T09:33:43;2.22;;;0.93;;
30533;SDS011;17318;52.390;9.754;2023-06-04T09:36:15;1.85;;;1.20;;
30533;SDS011;17318;52.390;9.754;2023-06-04T09:38:41;4.90;;;1.55;;
30533;SDS011;17318;52.390;9.754;2023-06-04T09:41:11;1.95;;;1.05;;
30533;SDS011;17318;52.390;9.754;2023-06-04T09:43:38;1.90;;;0.90;;
30533;SDS011;17318;52.390;9.754;2023-06-04T09:46:08;1.55;;;0.90;;
30533;SDS011;17318;52.390;9.754;2023-06-04T09:48:37;4.75;;;1.30;;
30533;SDS011;17318;52.390;9.754;2023-06-04T09:51:11;3.70;;;1.27;;
30533;SDS011;17318;52.390;9.754;2023-06-04T09:53:40;3.88;;;0.80;;
30533;SDS011;17318;52.390;9.754;2023-06-04T09:56:06;2.78;;;1.17;;
30533;SDS011;17318;52.390;9.754;2023-06-04T09:58:34;3.97;;;0.80;;
30533;SDS011;17318;52.390;9.754;2023-06-04T10:01:01;5.97;;;1.13;;
30533;SDS011;17318;52.390;9.754;2023-06-04T10:03:32;2.17;;;0.82;;
30533;SDS011;17318;52.390;9.754;2023-06-04T10:06:00;16.00;;;3.15;;
30533;SDS011;17318;52.390;9.754;2023-06-04T10:08:27;2.22;;;0.80;;
30533;SDS011;17318;52.390;9.754;2023-06-04T10:13:23;7.40;;;1.30;;
30533;SDS011;17318;52.390;9.754;2023-06-04T10:15:52;0.98;;;0.85;;
30533;SDS011;17318;52.390;9.754;2023-06-04T10:18:18;4.88;;;1.25;;
30533;SDS011;17318;52.390;9.754;2023-06-04T10:20:44;1.73;;;1.00;;
30533;SDS011;17318;52.390;9.754;2023-06-04T10:23:10;2.85;;;0.85;;
30533;SDS011;17318;52.390;9.754;2023-06-04T10:25:37;2.80;;;0.80;;
30533;SDS011;17318;52.390;9.754;2023-06-04T10:28:03;2.33;;;1.08;;
30533;SDS011;17318;52.390;9.754;2023-06-04T10:30:29;2.70;;;1.00;;
30533;SDS011;17318;52.390;9.754;2023-06-04T10:32:56;4.07;;;1.08;;
30533;SDS011;17318;52.390;9.754;2023-06-04T10:35:34;2.03;;;0.80;;
30533;SDS011;17318;52.390;9.754;2023-06-04T10:38:07;2.45;;;1.55;;
30533;SDS011;17318;52.390;9.754;2023-06-04T10:40:34;1.15;;;0.80;;
30533;SDS011;17318;52.390;9.754;2023-06-04T10:43:07;0.77;;;0.77;;
30533;SDS011;17318;52.390;9.754;2023-06-04T10:45:34;1.77;;;0.70;;
30533;SDS011;17318;52.390;9.754;2023-06-04T10:48:03;2.60;;;1.00;;
30533;SDS011;17318;52.390;9.754;2023-06-04T10:50:34;0.90;;;0.75;;
30533;SDS011;17318;52.390;9.754;2023-06-04T10:53:01;2.03;;;0.70;;
30533;SDS011;17318;52.390;9.754;2023-06-04T10:55:30;3.92;;;1.13;;
30533;SDS011;17318;52.390;9.754;2023-06-04T10:57:59;5.95;;;2.85;;
30533;SDS011;17318;52.390;9.754;2023-06-04T11:03:06;4.00;;;1.63;;
30533;SDS011;17318;52.390;9.754;2023-06-04T11:05:35;4.00;;;1.02;;
30533;SDS011;17318;52.390;9.754;2023-06-04T11:08:00;2.90;;;1.13;;
30533;SDS011;17318;52.390;9.754;2023-06-04T11:10:31;1.60;;;1.05;;
30533;SDS011;17318;52.390;9.754;2023-06-04T11:12:58;1.67;;;0.95;;
30533;SDS011;17318;52.390;9.754;2023-06-04T11:15:24;3.33;;;0.80;;
30533;SDS011;17318;52.390;9.754;2023-06-04T11:17:50;1.48;;;0.90;;
30533;SDS011;17318;52.390;9.754;2023-06-04T11:20:18;7.07;;;1.27;;
30533;SDS011;17318;52.390;9.754;2023-06-04T11:22:54;2.13;;;1.10;;
30533;SDS011;17318;52.390;9.754;2023-06-04T11:25:24;4.68;;;1.30;;
30533;SDS011;17318;52.390;9.754;2023-06-04T11:27:54;3.25;;;1.25;;
30533;SDS011;17318;52.390;9.754;2023-06-04T11:30:23;2.33;;;1.00;;
30533;SDS011;17318;52.390;9.754;2023-06-04T11:32:49;2.83;;;0.93;;
30533;SDS011;17318;52.390;9.754;2023-06-04T11:35:15;2.40;;;0.90;;
30533;SDS011;17318;52.390;9.754;2023-06-04T11:37:41;2.08;;;1.13;;
30533;SDS011;17318;52.390;9.754;2023-06-04T11:40:18;1.38;;;0.80;;
30533;SDS011;17318;52.390;9.754;2023-06-04T11:42:44;2.70;;;0.98;;
30533;SDS011;17318;52.390;9.754;2023-06-04T11:45:15;2.03;;;0.75;;
30533;SDS011;17318;52.390;9.754;2023-06-04T11:47:54;0.68;;;0.68;;
30533;SDS011;17318;52.390;9.754;2023-06-04T11:50:21;1.33;;;0.80;;
30533;SDS011;17318;52.390;9.754;2023-06-04T11:52:48;2.63;;;0.70;;
30533;SDS011;17318;52.390;9.754;2023-06-04T11:55:15;1.83;;;0.93;;
30533;SDS011;17318;52.390;9.754;2023-06-04T11:57:45;2.08;;;1.20;;
30533;SDS011;17318;52.390;9.754;2023-06-04T12:00:11;1.20;;;0.90;;
30533;SDS011;17318;52.390;9.754;2023-06-04T12:02:38;1.02;;;0.80;;
30533;SDS011;17318;52.390;9.754;2023-06-04T12:05:13;4.00;;;0.82;;
30533;SDS011;17318;52.390;9.754;2023-06-04T12:07:40;1.92;;;0.80;;
30533;SDS011;17318;52.390;9.754;2023-06-04T12:10:09;1.80;;;0.82;;
30533;SDS011;17318;52.390;9.754;2023-06-04T12:12:36;2.50;;;0.90;;
30533;SDS011;17318;52.390;9.754;2023-06-04T12:15:03;15.35;;;9.75;;
30533;SDS011;17318;52.390;9.754;2023-06-04T12:17:31;6.85;;;1.75;;
30533;SDS011;17318;52.390;9.754;2023-06-04T12:19:57;3.45;;;0.80;;
30533;SDS011;17318;52.390;9.754;2023-06-04T12:22:23;1.33;;;1.02;;
30533;SDS011;17318;52.390;9.754;2023-06-04T12:27:21;0.85;;;0.80;;
30533;SDS011;17318;52.390;9.754;2023-06-04T12:29:55;1.60;;;1.05;;
30533;SDS011;17318;52.390;9.754;2023-06-04T12:32:29;2.42;;;1.15;;
30533;SDS011;17318;52.390;9.754;2023-06-04T12:34:55;11.85;;;1.27;;
30533;SDS011;17318;52.390;9.754;2023-06-04T12:37:21;1.33;;;0.90;;
30533;SDS011;17318;52.390;9.754;2023-06-04T12:39:47;1.60;;;0.87;;
30533;SDS011;17318;52.390;9.754;2023-06-04T12:42:13;1.17;;;0.90;;
30533;SDS011;17318;52.390;9.754;2023-06-04T12:44:39;1.90;;;1.08;;
30533;SDS011;17318;52.390;9.754;2023-06-04T12:47:05;3.03;;;1.00;;
30533;SDS011;17318;52.390;9.754;2023-06-04T12:49:31;2.08;;;0.82;;
30533;SDS011;17318;52.390;9.754;2023-06-04T12:51:57;7.60;;;1.60;;
30533;SDS011;17318;52.390;9.754;2023-06-04T12:54:23;1.40;;;0.90;;
30533;SDS011;17318;52.390;9.754;2023-06-04T12:56:49;1.55;;;0.90;;
30533;SDS011;17318;52.390;9.754;2023-06-04T12:59:15;0.70;;;0.70;;
30533;SDS011;17318;52.390;9.754;2023-06-04T13:01:41;2.47;;;1.10;;
30533;SDS011;17318;52.390;9.754;2023-06-04T13:04:07;3.42;;;1.40;;
30533;SDS011;17318;52.390;9.754;2023-06-04T13:06:33;2.28;;;1.52;;
30533;SDS011;17318;52.390;9.754;2023-06-04T13:09:01;3.47;;;1.40;;
30533;SDS011;17318;52.390;9.754;2023-06-04T13:11:28;3.53;;;1.10;;
30533;SDS011;17318;52.390;9.754;2023-06-04T13:13:54;2.47;;;0.85;;
30533;SDS011;17318;52.390;9.754;2023-06-04T13:16:19;2.55;;;0.93;;
30533;SDS011;17318;52.390;9.754;2023-06-04T13:18:45;2.08;;;1.08;;
30533;SDS011;17318;52.390;9.754;2023-06-04T13:21:10;2.65;;;1.10;;
30533;SDS011;17318;52.390;9.754;2023-06-04T13:23:37;3.90;;;1.00;;
30533;SDS011;17318;52.390;9.754;2023-06-04T13:26:03;5.93;;;1.95;;
30533;SDS011;17318;52.390;9.754;2023-06-04T13:28:28;5.53;;;1.60;;
30533;SDS011;17318;52.390;9.754;2023-06-04T13:30:55;3.38;;;1.20;;
30533;SDS011;17318;52.390;9.754;2023-06-04T13:33:20;3.10;;;1.50;;
30533;SDS011;17318;52.390;9.754;2023-06-04T13:35:46;3.42;;;1.45;;
30533;SDS011;17318;52.390;9.754;2023-06-04T13:38:12;2.13;;;1.60;;
30533;SDS011;17318;52.390;9.754;2023-06-04T13:40:38;3.83;;;1.05;;
30533;SDS011;17318;52.390;9.754;2023-06-04T13:43:06;3.95;;;1.10;;
30533;SDS011;17318;52.390;9.754;2023-06-04T13:45:34;3.20;;;1.00;;
30533;SDS011;17318;52.390;9.754;2023-06-04T13:47:59;6.32;;;1.60;;
30533;SDS011;17318;52.390;9.754;2023-06-04T13:50:29;4.97;;;1.40;;
30533;SDS011;17318;52.390;9.754;2023-06-04T13:52:56;2.22;;;1.17;;
30533;SDS011;17318;52.390;9.754;2023-06-04T13:55:22;4.75;;;1.20;;
30533;SDS011;17318;52.390;9.754;2023-06-04T13:57:47;5.13;;;1.40;;
30533;SDS011;17318;52.390;9.754;2023-06-04T14:00:13;1.75;;;0.95;;
30533;SDS011;17318;52.390;9.754;2023-06-04T14:02:40;1.38;;;1.05;;
30533;SDS011;17318;52.390;9.754;2023-06-04T14:05:06;2.33;;;1.17;;
30533;SDS011;17318;52.390;9.754;2023-06-04T14:07:32;3.65;;;1.38;;
30533;SDS011;17318;52.390;9.754;2023-06-04T14:09:57;1.48;;;0.90;;
30533;SDS011;17318;52.390;9.754;2023-06-04T14:12:23;4.53;;;1.30;;
30533;SDS011;17318;52.390;9.754;2023-06-04T14:14:50;1.85;;;1.13;;
30533;SDS011;17318;52.390;9.754;2023-06-04T14:17:16;1.90;;;1.08;;
30533;SDS011;17318;52.390;9.754;2023-06-04T14:19:42;4.88;;;1.63;;
30533;SDS011;17318;52.390;9.754;2023-06-04T14:22:08;3.53;;;1.67;;
30533;SDS011;17318;52.390;9.754;2023-06-04T14:24:34;5.40;;;1.00;;
30533;SDS011;17318;52.390;9.754;2023-06-04T14:27:00;4.65;;;0.98;;
30533;SDS011;17318;52.390;9.754;2023-06-04T14:29:26;1.88;;;1.10;;
30533;SDS011;17318;52.390;9.754;2023-06-04T14:31:51;2.60;;;1.15;;
30533;SDS011;17318;52.390;9.754;2023-06-04T14:34:17;2.22;;;1.08;;
30533;SDS011;17318;52.390;9.754;2023-06-04T14:36:42;3.90;;;0.95;;
30533;SDS011;17318;52.390;9.754;2023-06-04T14:39:08;5.88;;;1.45;;
30533;SDS011;17318;52.390;9.754;2023-06-04T14:41:34;1.50;;;1.05;;
30533;SDS011;17318;52.390;9.754;2023-06-04T14:44:00;4.20;;;1.35;;
30533;SDS011;17318;52.390;9.754;2023-06-04T14:46:25;2.38;;;1.30;;
30533;SDS011;17318;52.390;9.754;2023-06-04T14:48:51;1.83;;;0.93;;
30533;SDS011;17318;52.390;9.754;2023-06-04T14:51:18;3.10;;;1.20;;
30533;SDS011;17318;52.390;9.754;2023-06-04T14:53:44;3.05;;;1.30;;
30533;SDS011;17318;52.390;9.754;2023-06-04T14:56:10;0.98;;;0.88;;
30533;SDS011;17318;52.390;9.754;2023-06-04T14:58:36;4.97;;;1.17;;
30533;SDS011;17318;52.390;9.754;2023-06-04T15:01:02;2.15;;;1.00;;